Bremen, Maine
Current Conditions -  °F | °C
As of 3:15 AM on Friday 24 Oct 2014 (Local Time) from KRKD Reporting Station
Overcast Overcast  
Wind Chill: 50°   Ceiling: 1000
Heat Index: 50°   Visibility: 10mi
Dew Point: 46°   Wind: 13mph
Humidity: 87%   Direction: 20°NNE
Pressure: 29.62"   Gusts: 23mph
Location:  44°N, 69.4°W
Report Text: KRKD 240715Z AUTO 02011G20KT 10SM OVC010 10/08 A2962 RMK AO1
Loading
Personal Weather Stations






























Interactive Weather Map
Tropical Storm Tracking
New forecast layout! Learn more

10-Day Weather Forecast

Advertisements
Track Severe Weather on mobile